Time;durP1;ratioP1;P1;durP2;ratioP2;P2;SDS_P1;SDS_P2;PMS_P1;PMS_P2;Temp;Humidity;BMP_temperature;BMP_pressure;BME280_temperature;BME280_humidity;BME280_pressure;Samples;Min_cycle;Max_cycle;Signal;HPM_P1;HPM_P2
2023/08/07 00:00:32;;;;;;;7.88;3.58;;;15.00;99.90;;;;;;5080258;28;20076;-56
2023/08/07 00:02:57;;;;;;;9.60;3.53;;;14.90;99.90;;;;;;5072403;28;20048;-55
2023/08/07 00:05:23;;;;;;;8.98;3.58;;;15.00;99.90;;;;;;5063535;28;20114;-55
2023/08/07 00:07:49;;;;;;;10.05;3.70;;;15.00;99.90;;;;;;5063412;28;20041;-55
2023/08/07 00:10:15;;;;;;;7.68;3.53;;;15.00;99.90;;;;;;5077132;28;20067;-56
2023/08/07 00:12:40;;;;;;;8.25;3.70;;;15.00;99.90;;;;;;5080054;28;20067;-56
2023/08/07 00:15:06;;;;;;;8.30;3.33;;;15.00;99.90;;;;;;5079200;28;20055;-56
2023/08/07 00:17:32;;;;;;;7.45;3.38;;;15.00;99.90;;;;;;5079523;28;20036;-55
2023/08/07 00:19:58;;;;;;;9.95;3.47;;;15.00;99.90;;;;;;5067509;28;20053;-56
2023/08/07 00:22:25;;;;;;;8.50;2.88;;;15.00;99.90;;;;;;5083482;28;20055;-56
2023/08/07 00:24:50;;;;;;;9.50;3.10;;;15.00;99.90;;;;;;5063376;28;20067;-56
2023/08/07 00:27:16;;;;;;;7.07;2.95;;;15.00;99.90;;;;;;5060899;28;20072;-56
2023/08/07 00:29:42;;;;;;;13.10;3.30;;;15.00;99.90;;;;;;5074464;28;20040;-56
2023/08/07 00:32:08;;;;;;;18.25;3.38;;;15.00;99.90;;;;;;5099450;28;20579;-56
2023/08/07 00:34:34;;;;;;;15.23;3.15;;;15.00;99.90;;;;;;5087928;28;20049;-56
2023/08/07 00:37:00;;;;;;;19.08;3.55;;;15.00;99.90;;;;;;5078286;28;20068;-56
2023/08/07 00:39:25;;;;;;;15.50;3.10;;;15.00;99.90;;;;;;5079798;28;20037;-56
2023/08/07 00:41:51;;;;;;;15.82;3.58;;;15.00;99.90;;;;;;5078944;28;20037;-56
2023/08/07 00:44:17;;;;;;;17.83;3.60;;;15.00;99.90;;;;;;5078454;28;20043;-56
2023/08/07 00:46:43;;;;;;;16.73;3.33;;;15.00;99.90;;;;;;5092280;28;20040;-56
2023/08/07 00:49:10;;;;;;;23.13;3.47;;;15.00;99.90;;;;;;5099207;28;20070;-56
2023/08/07 00:51:38;;;;;;;14.45;3.42;;;15.00;99.90;;;;;;5100481;28;20048;-57
2023/08/07 00:54:04;;;;;;;19.90;3.88;;;15.00;99.90;;;;;;5078023;28;20066;-57
2023/08/07 00:56:34;;;;;;;19.67;3.70;;;15.00;99.90;;;;;;5079856;28;20123;-56
2023/08/07 00:59:00;;;;;;;16.67;4.13;;;15.00;99.90;;;;;;5077703;28;20033;-57
2023/08/07 01:01:27;;;;;;;21.23;3.90;;;15.00;99.90;;;;;;5084063;28;20044;-57
2023/08/07 01:03:53;;;;;;;20.08;3.83;;;15.00;99.90;;;;;;5068059;28;20044;-57
2023/08/07 01:06:19;;;;;;;19.10;3.92;;;15.00;99.90;;;;;;5078197;28;20045;-57
2023/08/07 01:08:45;;;;;;;14.40;4.20;;;15.00;99.90;;;;;;5079632;28;20041;-57
2023/08/07 01:11:29;;;;;;;19.13;3.85;;;15.00;99.90;;;;;;5077717;28;20119;-56
2023/08/07 01:14:26;;;;;;;15.27;4.40;;;15.00;99.90;;;;;;5083736;28;20044;-57
2023/08/07 01:17:03;;;;;;;15.20;4.13;;;15.00;99.90;;;;;;5077451;28;20044;-56
2023/08/07 01:19:30;;;;;;;12.70;3.55;;;14.90;99.90;;;;;;5072227;28;20075;-57
2023/08/07 01:22:08;;;;;;;7.97;3.25;;;14.90;99.90;;;;;;5084500;28;20036;-57
2023/08/07 01:24:36;;;;;;;13.02;3.58;;;14.90;99.90;;;;;;5075765;28;20040;-56
2023/08/07 01:27:16;;;;;;;14.90;3.35;;;14.90;99.90;;;;;;5051088;28;20049;-57
2023/08/07 01:29:59;;;;;;;9.50;3.42;;;14.90;99.90;;;;;;5063886;28;20063;-57
2023/08/07 01:32:49;;;;;;;12.68;3.00;;;14.90;99.90;;;;;;5081885;28;20048;-57
2023/08/07 01:35:17;;;;;;;15.30;2.95;;;14.90;99.90;;;;;;5103675;28;20086;-57
2023/08/07 01:37:45;;;;;;;8.93;2.58;;;14.80;99.90;;;;;;5092015;28;20401;-56
2023/08/07 01:40:13;;;;;;;13.40;3.20;;;14.80;99.90;;;;;;5081075;28;20059;-57
2023/08/07 01:42:39;;;;;;;9.55;2.72;;;14.80;99.90;;;;;;5080662;28;20049;-57
2023/08/07 01:45:05;;;;;;;15.05;2.63;;;14.80;99.90;;;;;;5080628;28;20094;-57
2023/08/07 01:47:31;;;;;;;11.57;2.50;;;14.80;99.90;;;;;;5082720;28;20036;-57
2023/08/07 01:49:57;;;;;;;14.60;2.65;;;14.80;99.90;;;;;;5092659;28;20036;-57
2023/08/07 01:52:23;;;;;;;10.60;2.42;;;14.70;99.90;;;;;;5103985;28;20082;-57
2023/08/07 01:54:48;;;;;;;16.15;2.72;;;14.80;99.90;;;;;;5102563;28;20047;-57
2023/08/07 01:57:14;;;;;;;10.30;2.28;;;14.80;99.90;;;;;;5103049;28;20040;-57
2023/08/07 01:59:40;;;;;;;8.50;2.17;;;14.80;99.90;;;;;;5100230;28;20504;-56
2023/08/07 02:02:06;;;;;;;7.80;1.80;;;14.80;99.90;;;;;;5077580;28;20077;-57
2023/08/07 02:04:31;;;;;;;11.10;2.50;;;14.80;99.90;;;;;;5086238;28;20036;-57
2023/08/07 02:06:57;;;;;;;14.73;2.40;;;14.80;99.90;;;;;;5078483;28;20772;-57
2023/08/07 02:09:23;;;;;;;11.00;2.30;;;14.80;99.90;;;;;;5076801;28;20040;-57
2023/08/07 02:11:48;;;;;;;11.43;2.00;;;14.80;99.90;;;;;;5065106;28;20124;-57
2023/08/07 02:14:14;;;;;;;9.35;1.88;;;14.80;99.90;;;;;;5068192;28;20146;-57
2023/08/07 02:16:40;;;;;;;7.95;1.90;;;14.80;99.90;;;;;;5078514;28;20079;-57
2023/08/07 02:19:05;;;;;;;11.52;1.90;;;14.80;99.90;;;;;;5080958;28;20053;-57
2023/08/07 02:21:32;;;;;;;11.57;2.03;;;14.80;99.90;;;;;;5071426;28;20041;-57
2023/08/07 02:23:58;;;;;;;11.30;2.38;;;14.80;99.90;;;;;;5074313;28;20048;-58
2023/08/07 02:26:24;;;;;;;12.80;2.20;;;14.80;99.90;;;;;;5062835;28;20449;-57
2023/08/07 02:28:50;;;;;;;8.38;2.08;;;14.80;99.90;;;;;;5070284;28;20033;-56
2023/08/07 02:31:15;;;;;;;7.40;1.55;;;14.80;99.90;;;;;;5067864;28;20072;-57
2023/08/07 02:33:41;;;;;;;11.63;2.15;;;14.80;99.90;;;;;;5062317;28;20752;-57
2023/08/07 02:36:07;;;;;;;15.65;2.67;;;14.80;99.90;;;;;;5070927;28;20069;-57
2023/08/07 02:38:33;;;;;;;8.02;1.85;;;14.80;99.90;;;;;;5077814;28;20040;-57
2023/08/07 02:40:59;;;;;;;8.85;2.00;;;14.80;99.90;;;;;;5079185;28;20448;-57
2023/08/07 02:43:25;;;;;;;14.13;2.72;;;14.80;99.90;;;;;;5082424;28;20044;-57
2023/08/07 02:45:51;;;;;;;7.78;2.00;;;14.70;99.90;;;;;;5080405;28;20528;-56
2023/08/07 02:48:17;;;;;;;11.90;2.22;;;14.70;99.90;;;;;;5082243;28;20044;-58
2023/08/07 02:50:43;;;;;;;10.65;2.47;;;14.70;99.90;;;;;;5079323;28;20052;-57
2023/08/07 02:53:09;;;;;;;7.82;2.42;;;14.70;99.90;;;;;;5081121;28;20068;-57
2023/08/07 02:55:35;;;;;;;8.88;2.13;;;14.70;99.90;;;;;;5068822;28;20045;-57
2023/08/07 02:58:01;;;;;;;8.13;2.03;;;14.70;99.90;;;;;;5060614;28;20052;-58
2023/08/07 03:00:26;;;;;;;13.57;2.38;;;14.70;99.90;;;;;;5060630;28;20113;-57
2023/08/07 03:02:52;;;;;;;11.45;2.13;;;14.60;99.90;;;;;;5060149;28;20087;-57
2023/08/07 03:05:18;;;;;;;14.23;2.67;;;14.60;99.90;;;;;;5061776;28;20033;-57
2023/08/07 03:07:43;;;;;;;15.85;2.65;;;14.60;99.90;;;;;;5084668;28;20116;-56
2023/08/07 03:10:09;;;;;;;19.30;2.65;;;14.60;99.90;;;;;;5068006;28;20052;-58
2023/08/07 03:12:35;;;;;;;13.73;2.75;;;14.60;99.90;;;;;;5067252;28;20049;-58
2023/08/07 03:15:00;;;;;;;9.68;2.70;;;14.60;99.90;;;;;;5073403;28;20037;-57
2023/08/07 03:17:26;;;;;;;16.00;3.17;;;14.60;99.90;;;;;;5074304;28;20040;-57
2023/08/07 03:19:52;;;;;;;14.45;3.20;;;14.60;99.90;;;;;;5099866;28;20444;-58
2023/08/07 03:22:17;;;;;;;12.65;3.10;;;14.60;99.90;;;;;;5056472;28;20059;-58
2023/08/07 03:24:47;;;;;;;13.13;2.78;;;14.60;99.90;;;;;;5053751;28;20135;-57
2023/08/07 03:27:13;;;;;;;16.67;2.92;;;14.60;99.90;;;;;;5051649;28;20055;-57
2023/08/07 03:29:39;;;;;;;15.85;3.58;;;14.60;99.90;;;;;;5054698;28;21500;-57
2023/08/07 03:32:05;;;;;;;20.98;3.40;;;14.60;99.90;;;;;;5055268;28;20040;-58
2023/08/07 03:34:30;;;;;;;15.27;3.22;;;14.60;99.90;;;;;;5060545;28;20048;-57
2023/08/07 03:36:56;;;;;;;14.15;3.30;;;14.60;99.90;;;;;;5062046;28;20651;-57
2023/08/07 03:39:22;;;;;;;17.88;3.40;;;14.60;99.90;;;;;;5073090;28;20040;-57
2023/08/07 03:41:49;;;;;;;10.32;2.53;;;14.60;99.90;;;;;;5075127;28;20050;-57
2023/08/07 03:44:14;;;;;;;21.05;3.83;;;14.70;99.90;;;;;;5075947;28;20029;-57
2023/08/07 03:46:40;;;;;;;18.23;3.28;;;14.60;99.90;;;;;;5063884;28;20053;-58
2023/08/07 03:49:06;;;;;;;19.42;3.60;;;14.70;99.90;;;;;;5074968;28;20040;-57
2023/08/07 03:51:32;;;;;;;16.63;3.22;;;14.70;99.90;;;;;;5071788;28;20032;-57
2023/08/07 03:53:58;;;;;;;20.13;3.55;;;14.70;99.90;;;;;;5069996;28;20044;-58
2023/08/07 03:56:23;;;;;;;14.57;3.55;;;14.70;99.90;;;;;;5070178;28;20053;-57
2023/08/07 03:58:50;;;;;;;15.75;2.85;;;14.60;99.90;;;;;;5073981;28;20052;-57
2023/08/07 04:01:16;;;;;;;11.27;2.92;;;14.70;99.90;;;;;;5034940;28;20128;-58
2023/08/07 04:03:42;;;;;;;9.82;2.28;;;14.70;99.90;;;;;;5066119;28;20060;-57
2023/08/07 04:06:10;;;;;;;8.05;2.63;;;14.70;99.90;;;;;;5065488;28;20047;-57
2023/08/07 04:08:36;;;;;;;12.88;2.33;;;14.70;99.90;;;;;;5072628;28;20404;-58
2023/08/07 04:11:05;;;;;;;11.98;2.78;;;14.70;99.90;;;;;;5059998;28;20045;-58
2023/08/07 04:13:31;;;;;;;11.55;2.67;;;14.70;99.90;;;;;;5066112;28;20036;-57
2023/08/07 04:15:57;;;;;;;12.85;3.00;;;14.60;99.90;;;;;;5076814;28;20041;-57
2023/08/07 04:18:23;;;;;;;11.73;3.08;;;14.70;99.90;;;;;;5067484;28;20028;-58
2023/08/07 04:20:53;;;;;;;10.70;2.33;;;14.60;99.90;;;;;;5078860;28;20037;-57
2023/08/07 04:23:19;;;;;;;14.65;2.72;;;14.60;99.90;;;;;;5067025;28;20041;-58
2023/08/07 04:25:47;;;;;;;11.63;2.75;;;14.60;99.90;;;;;;5081651;28;20052;-58
2023/08/07 04:28:12;;;;;;;11.35;3.28;;;14.60;99.90;;;;;;5061875;28;20047;-57
2023/08/07 04:30:38;;;;;;;10.88;2.67;;;14.60;99.90;;;;;;5064710;28;20103;-57
2023/08/07 04:33:04;;;;;;;13.65;3.58;;;14.60;99.90;;;;;;5072396;28;20054;-55
2023/08/07 04:35:30;;;;;;;11.88;3.35;;;14.60;99.90;;;;;;5079775;28;20052;-57
2023/08/07 04:37:56;;;;;;;14.50;3.28;;;14.60;99.90;;;;;;5064966;28;20072;-57
2023/08/07 04:40:22;;;;;;;21.08;3.58;;;14.60;99.90;;;;;;5058884;28;20076;-57
2023/08/07 04:42:51;;;;;;;13.55;3.40;;;14.60;99.90;;;;;;5060090;28;20049;-57
2023/08/07 04:45:17;;;;;;;20.40;4.05;;;14.70;99.90;;;;;;5057219;28;20052;-57
2023/08/07 04:47:42;;;;;;;14.63;3.92;;;14.70;99.90;;;;;;5063341;28;20053;-58
2023/08/07 04:50:09;;;;;;;18.17;3.63;;;14.70;99.90;;;;;;5089446;28;20032;-57
2023/08/07 04:52:35;;;;;;;14.98;3.38;;;14.70;99.90;;;;;;5084420;28;20044;-57
2023/08/07 04:55:01;;;;;;;16.63;3.83;;;14.70;99.90;;;;;;5082912;28;20044;-58
2023/08/07 04:57:27;;;;;;;16.52;3.55;;;14.80;99.90;;;;;;5083009;28;20041;-58
2023/08/07 04:59:53;;;;;;;18.70;3.78;;;14.80;99.90;;;;;;5083926;28;20048;-57
2023/08/07 05:02:19;;;;;;;18.52;4.28;;;14.80;99.90;;;;;;5082746;28;20052;-58
2023/08/07 05:04:45;;;;;;;13.40;3.63;;;15.00;99.90;;;;;;5072200;28;20045;-57
2023/08/07 05:07:12;;;;;;;9.85;3.33;;;14.90;99.90;;;;;;5067477;28;20066;-57
2023/08/07 05:09:38;;;;;;;14.68;4.20;;;14.90;99.90;;;;;;5083950;28;20050;-57
2023/08/07 05:12:06;;;;;;;17.50;3.50;;;14.90;99.90;;;;;;5073769;28;20127;-57
2023/08/07 05:14:33;;;;;;;9.55;3.00;;;14.90;99.90;;;;;;5031868;28;20079;-57
2023/08/07 05:16:59;;;;;;;16.92;3.95;;;14.90;99.90;;;;;;5079401;28;20048;-58
2023/08/07 05:19:25;;;;;;;12.60;3.58;;;14.90;99.90;;;;;;5081231;28;20128;-57
2023/08/07 05:21:51;;;;;;;10.75;3.40;;;14.90;99.90;;;;;;5074071;28;20105;-57
2023/08/07 05:24:17;;;;;;;19.83;4.22;;;14.90;99.90;;;;;;5074906;28;20068;-57
2023/08/07 05:26:43;;;;;;;9.68;3.55;;;14.90;99.90;;;;;;5081150;28;20043;-58
2023/08/07 05:29:09;;;;;;;16.67;3.70;;;14.90;99.90;;;;;;5064865;28;20036;-57
2023/08/07 05:31:36;;;;;;;16.17;4.28;;;14.90;99.90;;;;;;5082603;28;20052;-56
2023/08/07 05:34:01;;;;;;;19.30;4.07;;;14.90;99.90;;;;;;5068658;28;20087;-58
2023/08/07 05:36:27;;;;;;;15.02;3.38;;;14.90;99.90;;;;;;5075075;28;20033;-57
2023/08/07 05:38:53;;;;;;;16.83;3.60;;;14.80;99.90;;;;;;5080460;28;20039;-58
2023/08/07 05:41:18;;;;;;;13.20;3.30;;;14.90;99.90;;;;;;5079632;28;20100;-58
2023/08/07 05:43:45;;;;;;;15.93;4.32;;;14.80;99.90;;;;;;5069828;28;20062;-58
2023/08/07 05:46:11;;;;;;;20.15;3.97;;;14.80;99.90;;;;;;5077598;28;20037;-58
2023/08/07 05:48:37;;;;;;;15.32;3.65;;;14.90;99.90;;;;;;5082000;28;20070;-57
2023/08/07 05:51:03;;;;;;;15.13;3.85;;;14.90;99.90;;;;;;5067844;28;20052;-57
2023/08/07 05:53:28;;;;;;;17.70;3.30;;;14.90;99.90;;;;;;5079284;28;20129;-58
2023/08/07 05:55:55;;;;;;;20.30;4.75;;;14.90;99.90;;;;;;5073433;28;20062;-58
2023/08/07 05:58:21;;;;;;;12.73;3.83;;;15.10;99.90;;;;;;5068125;28;20055;-58
2023/08/07 06:00:46;;;;;;;14.95;3.25;;;15.10;99.90;;;;;;5078142;28;20072;-58
2023/08/07 06:03:12;;;;;;;18.77;3.33;;;15.20;99.90;;;;;;5078701;28;20044;-58
2023/08/07 06:05:38;;;;;;;11.43;3.40;;;15.30;99.90;;;;;;5080814;28;20040;-58
2023/08/07 06:08:04;;;;;;;19.40;3.63;;;15.30;99.90;;;;;;5073876;28;20054;-61
2023/08/07 06:10:30;;;;;;;18.05;3.83;;;15.30;99.90;;;;;;5079940;28;20047;-58
2023/08/07 06:12:55;;;;;;;17.23;4.00;;;15.30;99.90;;;;;;5081317;28;20052;-58
2023/08/07 06:15:21;;;;;;;15.95;3.78;;;15.20;99.90;;;;;;5067901;28;20063;-57
2023/08/07 06:17:47;;;;;;;18.20;4.22;;;15.20;99.90;;;;;;5069487;28;20044;-57
2023/08/07 06:20:14;;;;;;;23.67;4.78;;;15.20;99.90;;;;;;5095948;28;20060;-57
2023/08/07 06:22:40;;;;;;;15.55;4.43;;;15.10;99.90;;;;;;5092071;28;20113;-58
2023/08/07 06:25:06;;;;;;;14.52;4.25;;;15.20;99.90;;;;;;5084978;28;20040;-57
2023/08/07 06:27:32;;;;;;;16.85;4.40;;;15.20;99.90;;;;;;5081248;28;20037;-58
2023/08/07 06:29:59;;;;;;;17.58;4.07;;;15.20;99.90;;;;;;5075631;28;20151;-58
2023/08/07 06:32:26;;;;;;;14.45;3.80;;;15.30;99.90;;;;;;5053789;28;20041;-57
2023/08/07 06:34:52;;;;;;;11.68;3.40;;;15.30;99.90;;;;;;5060485;28;20083;-57
2023/08/07 06:37:18;;;;;;;18.25;4.32;;;15.30;99.90;;;;;;5061970;28;20534;-58
2023/08/07 06:39:44;;;;;;;16.10;3.75;;;15.30;99.90;;;;;;5066691;28;20084;-58
2023/08/07 06:42:10;;;;;;;11.30;3.78;;;15.30;99.90;;;;;;5061201;28;20041;-57
2023/08/07 06:44:35;;;;;;;13.02;3.85;;;15.40;99.90;;;;;;5068656;28;20102;-58
2023/08/07 06:47:01;;;;;;;17.33;4.18;;;15.40;99.90;;;;;;5069983;28;20408;-58
2023/08/07 06:49:27;;;;;;;16.13;4.13;;;15.40;99.90;;;;;;5063808;28;20120;-58
2023/08/07 06:51:53;;;;;;;15.73;3.70;;;15.40;99.90;;;;;;5074362;28;20036;-57
2023/08/07 06:54:18;;;;;;;17.60;4.25;;;15.40;99.90;;;;;;5078332;28;20075;-58
2023/08/07 06:56:44;;;;;;;13.23;3.38;;;15.40;99.90;;;;;;5062981;28;20040;-58
2023/08/07 06:59:10;;;;;;;14.68;3.90;;;15.50;99.90;;;;;;5054217;28;20067;-58
2023/08/07 07:01:36;;;;;;;16.30;3.80;;;15.50;99.90;;;;;;5067957;28;20580;-58
2023/08/07 07:04:02;;;;;;;11.50;3.50;;;15.60;99.90;;;;;;5064283;28;20068;-58
2023/08/07 07:06:27;;;;;;;17.17;4.25;;;15.60;99.90;;;;;;5060589;28;20060;-58
2023/08/07 07:08:56;;;;;;;19.15;4.03;;;15.60;99.90;;;;;;5046515;28;20048;-58
2023/08/07 07:11:24;;;;;;;14.57;3.78;;;15.70;99.90;;;;;;5074132;28;20032;-58
2023/08/07 07:13:51;;;;;;;10.00;3.60;;;15.70;99.90;;;;;;5070487;28;20048;-58
2023/08/07 07:16:23;;;;;;;15.10;4.05;;;15.80;99.90;;;;;;5069304;28;20096;-58
2023/08/07 07:18:52;;;;;;;19.55;4.22;;;15.80;99.90;;;;;;5061941;28;20517;-59
2023/08/07 07:21:18;;;;;;;13.43;3.95;;;15.90;99.90;;;;;;5060727;28;20052;-59
2023/08/07 07:23:44;;;;;;;15.30;3.60;;;15.90;99.90;;;;;;5064400;28;20067;-59
2023/08/07 07:26:09;;;;;;;14.18;3.65;;;15.90;99.90;;;;;;5088630;28;20044;-59
2023/08/07 07:28:35;;;;;;;16.08;3.20;;;16.00;99.90;;;;;;5070189;28;20063;-58
2023/08/07 07:31:03;;;;;;;13.13;3.13;;;15.90;99.90;;;;;;5068674;28;20043;-58
2023/08/07 07:33:32;;;;;;;9.82;3.00;;;16.00;99.90;;;;;;5070002;28;20044;-58
2023/08/07 07:35:57;;;;;;;17.90;3.08;;;16.00;99.90;;;;;;5063442;28;20127;-58
2023/08/07 07:38:23;;;;;;;13.60;3.20;;;15.90;99.90;;;;;;5069402;28;20373;-58
2023/08/07 07:40:49;;;;;;;7.80;2.80;;;16.00;99.90;;;;;;5069709;28;20066;-59
2023/08/07 07:43:15;;;;;;;11.75;2.72;;;15.80;99.90;;;;;;5073665;28;20096;-58
2023/08/07 07:45:41;;;;;;;7.47;2.60;;;15.70;99.90;;;;;;5067364;28;20043;-58
2023/08/07 07:48:07;;;;;;;8.82;2.28;;;15.60;99.90;;;;;;5071633;28;20048;-58
2023/08/07 07:50:33;;;;;;;9.52;2.92;;;15.50;99.90;;;;;;5065046;28;21319;-58
2023/08/07 07:52:59;;;;;;;7.18;2.38;;;15.50;99.90;;;;;;5067114;28;20051;-62
2023/08/07 07:55:25;;;;;;;5.95;2.50;;;15.40;99.90;;;;;;5071216;28;20080;-58
2023/08/07 07:57:51;;;;;;;12.57;3.17;;;15.40;99.90;;;;;;5065515;28;20051;-57
2023/08/07 08:00:17;;;;;;;13.55;3.17;;;15.60;99.90;;;;;;5067459;28;20048;-57
2023/08/07 08:02:43;;;;;;;11.90;3.42;;;15.80;99.90;;;;;;5076752;28;20053;-58
2023/08/07 08:05:12;;;;;;;10.77;3.10;;;16.10;99.90;;;;;;5064900;28;20048;-57
2023/08/07 08:07:42;;;;;;;12.60;3.55;;;16.40;99.90;;;;;;5067786;28;20033;-57
2023/08/07 08:10:08;;;;;;;13.98;3.33;;;16.60;99.90;;;;;;5061624;28;20045;-57
2023/08/07 08:12:35;;;;;;;14.10;3.55;;;16.90;99.90;;;;;;5069775;28;20048;-58
2023/08/07 08:15:01;;;;;;;16.08;3.40;;;17.10;99.90;;;;;;5067690;28;20065;-58
2023/08/07 08:17:27;;;;;;;12.43;3.60;;;17.20;99.90;;;;;;5071578;28;20043;-58
2023/08/07 08:19:52;;;;;;;14.48;3.35;;;17.10;99.90;;;;;;5061346;28;20311;-58
2023/08/07 08:22:19;;;;;;;9.52;3.10;;;16.90;99.90;;;;;;5071752;28;20559;-58
2023/08/07 08:24:44;;;;;;;11.75;2.97;;;16.70;99.90;;;;;;5063386;28;20475;-58
2023/08/07 08:27:10;;;;;;;11.98;3.42;;;16.60;99.90;;;;;;5062553;28;20037;-58
2023/08/07 08:29:36;;;;;;;13.65;3.15;;;16.50;99.90;;;;;;5098019;28;20068;-57
2023/08/07 08:32:01;;;;;;;11.07;3.00;;;16.40;99.90;;;;;;5077102;28;20077;-58
2023/08/07 08:34:27;;;;;;;13.50;3.30;;;16.30;99.90;;;;;;5070669;28;20067;-58
2023/08/07 08:36:53;;;;;;;13.68;3.50;;;16.30;99.90;;;;;;5067407;28;20049;-58
2023/08/07 08:39:19;;;;;;;14.63;3.33;;;16.40;99.90;;;;;;5072865;28;20053;-58
2023/08/07 08:41:47;;;;;;;18.63;4.20;;;16.50;99.90;;;;;;5069701;28;20041;-57
2023/08/07 08:44:14;;;;;;;12.32;3.20;;;16.60;99.90;;;;;;5065780;28;20041;-57
2023/08/07 08:46:42;;;;;;;11.05;3.33;;;16.60;99.90;;;;;;5064534;28;20107;-57
2023/08/07 08:49:10;;;;;;;16.90;3.88;;;16.70;99.90;;;;;;5064236;28;20048;-58
2023/08/07 08:51:37;;;;;;;9.55;3.30;;;16.70;99.90;;;;;;5075410;28;20049;-57
2023/08/07 08:54:03;;;;;;;13.77;3.15;;;16.80;99.90;;;;;;5074908;28;20498;-57
2023/08/07 08:56:33;;;;;;;13.75;3.50;;;16.80;99.90;;;;;;5076499;28;20358;-57
2023/08/07 08:58:58;;;;;;;11.52;3.40;;;17.10;99.90;;;;;;5073193;28;20060;-57
2023/08/07 09:01:25;;;;;;;10.38;3.20;;;16.90;99.90;;;;;;5072298;28;20044;-57
2023/08/07 09:03:55;;;;;;;13.00;3.03;;;17.10;99.90;;;;;;5066309;28;20040;-57
2023/08/07 09:06:21;;;;;;;11.45;3.35;;;17.20;99.90;;;;;;5073988;28;20037;-58
2023/08/07 09:08:49;;;;;;;9.68;3.25;;;17.10;99.90;;;;;;5067976;28;20054;-57
2023/08/07 09:11:16;;;;;;;9.43;2.83;;;17.00;99.90;;;;;;5063994;28;20029;-58
2023/08/07 09:13:44;;;;;;;13.70;3.50;;;17.30;99.90;;;;;;5069380;28;20049;-57
2023/08/07 09:16:11;;;;;;;13.25;3.65;;;16.90;99.90;;;;;;5063510;28;20045;-58
2023/08/07 09:18:37;;;;;;;11.20;2.65;;;16.90;99.90;;;;;;5065452;28;20048;-57
2023/08/07 09:21:03;;;;;;;8.75;2.58;;;16.90;99.90;;;;;;5069206;28;20044;-57
2023/08/07 09:23:29;;;;;;;8.07;2.58;;;16.90;99.90;;;;;;5051055;28;20132;-57
2023/08/07 09:26:02;;;;;;;9.60;2.38;;;16.90;99.90;;;;;;5064829;28;20055;-57
2023/08/07 09:28:29;;;;;;;10.00;2.78;;;17.10;99.90;;;;;;5060539;28;20045;-57
2023/08/07 09:30:56;;;;;;;14.68;3.10;;;17.20;99.90;;;;;;5069510;28;20066;-57
2023/08/07 09:33:28;;;;;;;11.80;2.60;;;17.30;99.90;;;;;;5070926;28;20041;-55
2023/08/07 09:36:00;;;;;;;10.60;2.88;;;17.50;99.90;;;;;;5063485;28;20052;-57
2023/08/07 09:38:32;;;;;;;11.07;2.35;;;17.60;99.90;;;;;;5072700;28;20098;-57
2023/08/07 09:41:03;;;;;;;6.82;2.30;;;17.70;99.90;;;;;;5073093;28;20044;-58
2023/08/07 09:43:29;;;;;;;5.40;1.90;;;17.80;99.90;;;;;;5066898;28;20057;-57
2023/08/07 09:46:05;;;;;;;5.60;2.40;;;17.90;99.90;;;;;;5068749;28;20036;-57
2023/08/07 09:48:33;;;;;;;10.55;2.60;;;17.80;99.90;;;;;;5064827;28;20438;-58
2023/08/07 09:51:02;;;;;;;5.63;2.20;;;17.70;99.90;;;;;;5070355;28;20055;-58
2023/08/07 09:53:29;;;;;;;13.57;2.67;;;17.60;99.90;;;;;;5079290;28;20182;-57
2023/08/07 09:55:55;;;;;;;12.93;2.50;;;17.40;99.90;;;;;;5073567;28;20052;-57
2023/08/07 09:58:21;;;;;;;10.55;2.67;;;17.30;99.90;;;;;;5071357;28;20045;-57
2023/08/07 10:00:47;;;;;;;9.23;2.88;;;17.10;99.90;;;;;;5078831;28;20040;-58
2023/08/07 10:03:14;;;;;;;13.65;3.20;;;17.00;99.90;;;;;;5071624;28;20049;-56
2023/08/07 10:05:42;;;;;;;12.52;2.97;;;17.00;99.90;;;;;;5064185;28;20052;-57
2023/08/07 10:08:08;;;;;;;13.23;3.28;;;17.00;99.90;;;;;;5070596;28;20048;-57
2023/08/07 10:10:34;;;;;;;13.75;2.83;;;16.90;99.90;;;;;;5063905;28;20056;-57
2023/08/07 10:13:03;;;;;;;10.75;3.00;;;16.90;99.90;;;;;;5065576;28;20040;-56
2023/08/07 10:15:31;;;;;;;10.60;2.55;;;16.90;99.90;;;;;;5065623;28;20052;-57
2023/08/07 10:17:57;;;;;;;13.20;3.40;;;17.00;99.90;;;;;;5097989;28;20037;-57
2023/08/07 10:20:26;;;;;;;13.05;2.40;;;17.10;99.90;;;;;;5072556;28;20113;-57
2023/08/07 10:22:52;;;;;;;10.68;3.40;;;17.20;99.90;;;;;;5061096;28;20060;-57
2023/08/07 10:25:21;;;;;;;7.65;2.70;;;17.30;99.90;;;;;;5072114;28;20040;-57
2023/08/07 10:27:52;;;;;;;10.20;2.83;;;17.30;99.90;;;;;;5074851;28;20049;-57
2023/08/07 10:30:19;;;;;;;8.13;2.42;;;17.40;99.90;;;;;;5072857;28;20041;-57
2023/08/07 10:32:46;;;;;;;8.73;2.47;;;17.40;99.90;;;;;;5060977;28;20044;-57
2023/08/07 10:35:30;;;;;;;8.57;3.13;;;17.50;99.90;;;;;;5065349;28;20053;-57
2023/08/07 10:38:08;;;;;;;9.93;2.50;;;17.50;99.90;;;;;;5074886;28;20040;-57
2023/08/07 10:40:54;;;;;;;7.40;2.45;;;17.50;99.90;;;;;;5070227;28;20035;-58
2023/08/07 10:43:19;;;;;;;7.25;2.20;;;17.50;99.90;;;;;;5071783;28;20479;-57
2023/08/07 10:45:45;;;;;;;10.45;2.75;;;17.40;99.90;;;;;;5075108;28;20052;-57
2023/08/07 10:48:12;;;;;;;10.57;2.83;;;17.40;99.90;;;;;;5080607;28;20040;-57
2023/08/07 10:50:51;;;;;;;8.40;2.60;;;17.40;99.90;;;;;;5077755;28;20040;-57
2023/08/07 10:53:29;;;;;;;12.93;2.58;;;17.50;99.90;;;;;;5067881;28;20501;-58
2023/08/07 10:55:58;;;;;;;8.05;2.30;;;17.50;99.90;;;;;;5065069;28;20167;-58
2023/08/07 10:58:34;;;;;;;6.63;2.67;;;17.60;99.90;;;;;;5074580;28;20047;-57
2023/08/07 11:01:35;;;;;;;8.80;2.85;;;17.60;99.90;;;;;;5078027;28;20054;-57
2023/08/07 11:04:06;;;;;;;8.52;2.25;;;17.60;99.90;;;;;;5060663;28;20049;-57
2023/08/07 11:06:35;;;;;;;9.13;2.22;;;17.60;99.90;;;;;;5064355;28;20120;-57
2023/08/07 11:09:04;;;;;;;7.78;3.53;;;17.60;99.90;;;;;;5077494;28;20069;-57
2023/08/07 11:11:47;;;;;;;8.52;2.28;;;17.60;99.90;;;;;;5066308;28;20123;-57
2023/08/07 11:14:15;;;;;;;9.25;2.70;;;17.60;99.90;;;;;;5072380;28;20101;-57
2023/08/07 11:16:42;;;;;;;7.57;2.15;;;17.60;99.90;;;;;;5072289;28;20083;-57
2023/08/07 11:19:09;;;;;;;8.35;2.25;;;17.60;99.90;;;;;;5061668;28;20036;-57
2023/08/07 11:21:36;;;;;;;8.63;2.55;;;17.70;99.90;;;;;;5076068;28;20115;-57
2023/08/07 11:24:02;;;;;;;11.43;2.63;;;17.70;99.90;;;;;;5077196;28;20434;-57
2023/08/07 11:26:28;;;;;;;7.53;2.15;;;17.80;99.90;;;;;;5077623;28;20036;-57
2023/08/07 11:28:55;;;;;;;5.60;1.90;;;18.00;99.90;;;;;;5058407;28;20108;-56
2023/08/07 11:31:24;;;;;;;10.73;2.47;;;18.00;99.90;;;;;;5059532;28;20088;-57
2023/08/07 11:33:55;;;;;;;5.65;2.25;;;18.00;99.90;;;;;;5067980;28;20041;-57
2023/08/07 11:36:22;;;;;;;9.90;2.70;;;18.00;99.90;;;;;;5059767;28;20052;-57
2023/08/07 11:38:48;;;;;;;6.13;2.30;;;18.10;99.90;;;;;;5069512;28;20055;-57
2023/08/07 11:41:16;;;;;;;9.75;2.42;;;18.20;99.90;;;;;;5074538;28;20033;-58
2023/08/07 11:43:42;;;;;;;10.43;2.30;;;18.30;99.90;;;;;;5066248;28;20871;-57
2023/08/07 11:46:10;;;;;;;9.13;2.47;;;18.30;99.90;;;;;;5065392;28;20045;-57
2023/08/07 11:48:38;;;;;;;6.72;2.15;;;18.30;99.90;;;;;;5068850;28;20045;-57
2023/08/07 11:51:05;;;;;;;7.70;1.83;;;18.20;99.90;;;;;;5070713;28;20432;-57
2023/08/07 11:53:39;;;;;;;7.97;1.98;;;18.20;99.90;;;;;;5062328;28;20067;-58
2023/08/07 11:56:10;;;;;;;13.02;2.20;;;18.20;99.90;;;;;;5068919;28;20048;-57
2023/08/07 11:58:47;;;;;;;8.60;2.35;;;18.10;99.90;;;;;;5066511;28;20550;-58
2023/08/07 12:01:20;;;;;;;12.32;2.42;;;18.10;99.90;;;;;;5066993;28;20059;-58
2023/08/07 12:03:56;;;;;;;9.98;2.15;;;18.10;99.90;;;;;;5060885;28;20041;-57
2023/08/07 12:06:25;;;;;;;6.47;2.00;;;18.10;99.90;;;;;;5066715;28;20538;-58
2023/08/07 12:08:54;;;;;;;8.00;2.38;;;18.10;99.90;;;;;;5068002;28;20041;-59
2023/08/07 12:11:21;;;;;;;8.80;2.40;;;18.20;99.90;;;;;;5067851;28;20048;-57
2023/08/07 12:13:47;;;;;;;6.60;2.35;;;18.30;99.90;;;;;;5065379;28;20033;-57
2023/08/07 12:16:15;;;;;;;7.35;1.95;;;18.30;99.90;;;;;;5067909;28;20091;-57
2023/08/07 12:18:45;;;;;;;10.98;2.60;;;18.30;99.90;;;;;;5067272;28;20044;-58
2023/08/07 12:21:11;;;;;;;7.00;2.20;;;18.30;99.90;;;;;;5061422;28;20067;-57
2023/08/07 12:23:39;;;;;;;5.00;2.20;;;18.40;99.90;;;;;;5068433;28;20033;-57
2023/08/07 12:26:06;;;;;;;6.70;2.20;;;18.40;99.90;;;;;;5061387;28;20056;-58
2023/08/07 12:28:36;;;;;;;6.47;2.35;;;18.50;99.90;;;;;;5063544;28;20466;-57
2023/08/07 12:31:03;;;;;;;10.23;2.45;;;18.50;99.90;;;;;;5067130;28;20047;-58
2023/08/07 12:33:31;;;;;;;9.18;2.55;;;18.50;99.90;;;;;;5075423;28;20032;-57
2023/08/07 12:35:58;;;;;;;7.63;2.35;;;18.50;99.90;;;;;;5058991;28;20057;-58
2023/08/07 12:38:24;;;;;;;7.65;2.35;;;18.50;99.90;;;;;;5067236;28;20047;-58
2023/08/07 12:40:49;;;;;;;7.72;2.53;;;18.50;99.90;;;;;;5065700;28;20096;-57